Bei Facebook empfehlenBei Twitter postenGoogle plusPinterest

Das Wetter im Erzgebirge am 10.02.2016

Wetter und Klima am 10.02.2016 Holzhau im Erzgebirge (630m ü.NN)
Letzte gemessene Temperatur und Uhrzeit der Messung23:45:00 Uhr0.50 °C
Temperatur (Maximum / Höchstwert) und Uhrzeit der Messung13:00:00 Uhr3.60 °C
Temperatur (Minimum / Tiefstwert) und Uhrzeit der Messung08:30:00-0.20 °C
Errechneter Absolutwert der Temperaturschwankungen zwischen Tmin und Tmax des Tages3.80 K
Errechnete Tagesmitteltemperatur1.36771 °C
Gesamt - Niederschlag des Tages (in flüssiger Form)0.00 Liter / m²
Luftdruck (Maximum / Höchstwert) und Zeitpunkt der Messung23:15:00 Uhr993.50 hPa
Luftdruck (Minimum / Tiefstwert) und Zeitpunkt der Messung00:00:00 Uhr984.50 hPa
Errechneter Absolutwert der Luftdruckschwankungen des Tages9.00 hPa
Höchste gemessene Windgeschwindigkeit und Uhrzeit der Messung15:45:00 Uhr16.20 km/h
Errechnete Windhäufigkeit in Relation zu den Messwerten des Tages68.75000 %
Niedrigste Windkühle (Windchill) und Zeitpunkt der Messung07:15:00 Uhr-4.00 °C
Taupunkt (Maximum / Höchstwert) und Uhrzeit der Messung01:15:00 Uhr2.30 °C
Taupunkt (Minimum / Tiefstwert) und Uhrzeit der Messung07:00:00-2.30 °C
Anzahl der automatisch eingelesenen Messwerte 96

Detaillierte Wetter- und Klima- Messwerte für den 10.02.2016 in Holzhau im Erzgebirge (630m ü.NN)
ZeitTemperaturLuftdruckRel. LuftfeuchteWindWindrichtungWindchillTaupunktNiederschlag l/m²
23:45:000.50 °C993.40 hPa91.00 %8.28 km/hW-2.20 °C-0.80 °C 
23:30:000.40 °C993.40 hPa91.00 %7.92 km/hWNW-2.20 °C-0.90 °C 
23:15:000.40 °C993.50 hPa91.00 %2.16 km/hW0.40 °C-0.90 °C 
23:00:000.30 °C993.50 hPa90.00 %5.76 km/hNNW-1.60 °C-1.10 °C 
22:45:000.30 °C993.30 hPa90.00 %4.68 km/hW0.30 °C-1.10 °C 
22:30:000.20 °C993.30 hPa90.00 %1.08 km/hNW0.20 °C-1.20 °C 
22:15:000.20 °C993.40 hPa89.00 %-1.40 °C 
22:00:000.20 °C993.20 hPa89.00 %-1.40 °C 
21:45:000.30 °C993.10 hPa89.00 %2.88 km/hW0.30 °C-1.30 °C 
21:30:000.30 °C993.00 hPa89.00 %6.48 km/hW-1.90 °C-1.30 °C 
21:15:000.30 °C992.60 hPa88.00 %2.52 km/hWNW0.30 °C-1.40 °C 
21:00:000.40 °C992.50 hPa88.00 %5.40 km/hWSW-1.30 °C-1.30 °C 
20:45:000.40 °C992.20 hPa87.00 %4.32 km/hW0.40 °C-1.50 °C 
20:30:000.40 °C992.10 hPa87.00 %9.00 km/hWNW-2.60 °C-1.50 °C 
20:15:000.30 °C992.20 hPa86.00 %-1.80 °C 
20:00:000.20 °C992.20 hPa85.00 %-2.00 °C 
19:45:000.30 °C992.10 hPa84.00 %-2.10 °C 
19:30:000.60 °C992.00 hPa84.00 %-1.80 °C 
19:15:000.60 °C992.20 hPa83.00 %-1.90 °C 
19:00:000.80 °C992.10 hPa82.00 %-1.90 °C 
18:45:000.90 °C992.10 hPa82.00 %3.60 km/hNW0.90 °C-1.80 °C 
18:30:001.00 °C991.90 hPa81.00 %3.60 km/hWNW1.00 °C-1.90 °C 
18:15:001.10 °C991.70 hPa81.00 %-1.80 °C 
18:00:001.10 °C991.50 hPa80.00 %-2.00 °C 
17:45:001.20 °C991.50 hPa80.00 %2.52 km/hW1.20 °C-1.90 °C 
17:30:001.30 °C991.40 hPa79.00 %-1.90 °C 
17:15:001.30 °C991.40 hPa79.00 %2.88 km/hWNW1.30 °C-1.90 °C 
17:00:001.40 °C991.00 hPa78.00 %6.84 km/hW-0.70 °C-2.00 °C 
16:45:001.60 °C991.00 hPa78.00 %12.60 km/hSW-2.00 °C-1.80 °C 
16:30:001.80 °C990.90 hPa77.00 %11.16 km/hSW-1.40 °C-1.80 °C 
16:15:001.80 °C990.70 hPa77.00 %2.16 km/hWNW1.80 °C-1.80 °C 
16:00:001.90 °C990.70 hPa77.00 %5.40 km/hWNW0.40 °C-1.70 °C 
15:45:002.10 °C990.60 hPa76.00 %16.20 km/hWSW-2.00 °C-1.70 °C 
15:30:002.10 °C990.60 hPa76.00 %2.52 km/hW2.10 °C-1.70 °C 
15:15:002.10 °C990.50 hPa75.00 %6.48 km/hWSW0.20 °C-1.90 °C 
15:00:002.10 °C990.20 hPa75.00 %7.20 km/hWNW0.00 °C-1.90 °C 
14:45:002.30 °C990.50 hPa74.00 %-1.80 °C 
14:30:002.80 °C990.50 hPa74.00 %8.64 km/hWSW0.40 °C-1.40 °C 
14:15:003.20 °C990.40 hPa75.00 %-0.80 °C 
14:00:003.00 °C990.40 hPa76.00 %3.24 km/hWNW3.00 °C-0.80 °C 
13:45:002.60 °C990.30 hPa75.00 %3.24 km/hNW2.60 °C-1.40 °C 
13:30:002.80 °C990.60 hPa75.00 %10.44 km/hSW-0.10 °C-1.20 °C 
13:15:003.30 °C990.60 hPa76.00 %3.96 km/hW3.30 °C-0.50 °C 
13:00:003.60 °C990.50 hPa78.00 %11.52 km/hW0.70 °C0.10 °C 
12:45:002.90 °C990.50 hPa78.00 %5.76 km/hW1.40 °C-0.50 °C 
12:30:002.90 °C990.50 hPa79.00 %6.84 km/hW1.00 °C-0.40 °C 
12:15:002.80 °C990.70 hPa80.00 %5.40 km/hNW1.40 °C-0.30 °C 
12:00:002.40 °C990.70 hPa80.00 %6.84 km/hW0.40 °C-0.70 °C 
11:45:002.40 °C990.70 hPa81.00 %11.16 km/hWNW-0.70 °C-0.50 °C 
11:30:002.00 °C990.90 hPa82.00 %5.04 km/hNW0.70 °C-0.70 °C 
11:15:001.80 °C990.90 hPa83.00 %-0.80 °C 
11:00:001.60 °C991.00 hPa84.00 %8.64 km/hWNW-1.00 °C-0.80 °C 
10:45:001.30 °C990.80 hPa85.00 %12.24 km/hWSW-2.30 °C-0.90 °C 
10:30:001.10 °C990.70 hPa86.00 %2.52 km/hNW1.10 °C-1.00 °C 
10:15:000.90 °C990.80 hPa86.00 %8.64 km/hWNW-1.90 °C-1.20 °C 
10:00:000.80 °C990.70 hPa87.00 %-1.10 °C 
09:45:000.70 °C990.60 hPa87.00 %-1.20 °C 
09:30:000.60 °C990.30 hPa88.00 %6.84 km/hNW-1.60 °C-1.20 °C 
09:15:000.40 °C990.10 hPa88.00 %3.60 km/hNW0.40 °C-1.30 °C 
09:00:000.10 °C990.00 hPa88.00 %-1.60 °C 
08:45:00-0.10 °C989.90 hPa88.00 %-2.00 °C 
08:30:00-0.20 °C989.80 hPa88.00 %-2.10 °C 
08:15:00-0.20 °C989.40 hPa88.00 %-2.10 °C 
08:00:000.00 °C989.60 hPa88.00 %-2.00 °C 
07:45:000.10 °C989.30 hPa88.00 %9.72 km/hWNW-3.10 °C-1.60 °C 
07:30:000.10 °C989.30 hPa88.00 %7.20 km/hSW-2.40 °C-1.60 °C 
07:15:00-0.10 °C989.10 hPa88.00 %12.24 km/hW-4.00 °C-2.00 °C 
07:00:00-0.20 °C988.90 hPa87.00 %-2.30 °C 
06:45:00-0.20 °C989.00 hPa87.00 %1.80 km/hWSW-0.20 °C-2.30 °C 
06:30:00-0.10 °C988.70 hPa87.00 %-2.20 °C 
06:15:000.00 °C988.40 hPa87.00 %-2.10 °C 
06:00:000.10 °C988.50 hPa87.00 %2.52 km/hWSW0.10 °C-1.80 °C 
05:45:000.30 °C988.40 hPa87.00 %-1.60 °C 
05:30:000.40 °C988.30 hPa87.00 %-1.50 °C 
05:15:000.70 °C988.10 hPa87.00 %1.08 km/hWNW0.70 °C-1.20 °C 
05:00:000.90 °C988.00 hPa86.00 %6.84 km/hNW-1.30 °C-1.20 °C 
04:45:001.10 °C988.00 hPa86.00 %-1.00 °C 
04:30:001.20 °C988.30 hPa86.00 %9.36 km/hNNW-1.70 °C-0.90 °C 
04:15:001.30 °C988.20 hPa86.00 %-0.80 °C 
04:00:001.30 °C988.10 hPa86.00 %9.00 km/hWNW-1.50 °C-0.80 °C 
03:45:001.50 °C988.00 hPa86.00 %3.24 km/hNNW1.50 °C-0.60 °C 
03:30:001.80 °C988.00 hPa87.00 %7.20 km/hW-0.40 °C-0.10 °C 
03:15:002.10 °C987.80 hPa87.00 %8.64 km/hNW-0.50 °C0.20 °C 
03:00:002.20 °C988.00 hPa88.00 %0.40 °C 
02:45:002.20 °C988.00 hPa88.00 %5.40 km/hWNW0.70 °C0.40 °C 
02:30:002.40 °C987.50 hPa88.00 %10.08 km/hWNW-0.50 °C0.60 °C 
02:15:002.50 °C987.90 hPa88.00 %12.24 km/hWSW-0.80 °C0.70 °C 
02:00:002.80 °C987.10 hPa89.00 %7.56 km/hW0.70 °C1.20 °C 
01:45:003.10 °C987.00 hPa89.00 %9.00 km/hNW0.60 °C1.50 °C 
01:30:003.40 °C986.70 hPa90.00 %10.44 km/hN0.60 °C1.90 °C 
01:15:003.60 °C986.40 hPa91.00 %10.08 km/hW1.00 °C2.30 °C 
01:00:003.60 °C986.40 hPa91.00 %9.72 km/hNW1.10 °C2.30 °C 
00:45:003.40 °C985.80 hPa91.00 %11.16 km/hSW0.50 °C2.10 °C 
00:30:003.30 °C985.20 hPa92.00 %3.60 km/hWNW3.30 °C2.10 °C 
00:15:003.30 °C984.80 hPa92.00 %9.00 km/hSW0.90 °C2.10 °C 
00:00:003.20 °C984.50 hPa92.00 %2.00 °C 

Permanenter Link zu dieser Seite: Wetter im Erzgebirge am 10.02.2016
Performance-Info: Die Erstellung der Seite / Statistik(en) / Tabelle(n) erforderte 5 Datenbankserver-Abfrage(n) und dauerte 69 Millisekunden. (Dieser Messwert ist von der Gesamt-Auslastung des Servers abhängig.)
Erzgebirge - Wetter | Erzgebirge - Wetter (Mobilgeräte) | Komplette Klimadatenbank